sensor_id;sensor_type;location;lat;lon;timestamp;pressure;altitude;pressure_sealevel;temperature;humidity
42431;BME280;71905;47.466;19.024;2023-11-18T00:01:19;100098.78;;;5.10;100.00
42431;BME280;71905;47.466;19.024;2023-11-18T00:03:49;100105.78;;;5.10;100.00
42431;BME280;71905;47.466;19.024;2023-11-18T00:06:17;100107.53;;;5.09;100.00
42431;BME280;71905;47.466;19.024;2023-11-18T00:08:45;100107.44;;;5.14;100.00
42431;BME280;71905;47.466;19.024;2023-11-18T00:11:13;100134.50;;;5.13;100.00
42431;BME280;71905;47.466;19.024;2023-11-18T00:13:42;100126.75;;;5.05;100.00
42431;BME280;71905;47.466;19.024;2023-11-18T00:16:10;100122.38;;;5.09;100.00
42431;BME280;71905;47.466;19.024;2023-11-18T00:18:40;100142.41;;;5.11;100.00
42431;BME280;71905;47.466;19.024;2023-11-18T00:21:08;100132.84;;;5.09;100.00
42431;BME280;71905;47.466;19.024;2023-11-18T00:23:36;100138.09;;;5.06;100.00
42431;BME280;71905;47.466;19.024;2023-11-18T00:26:04;100127.56;;;5.10;100.00
42431;BME280;71905;47.466;19.024;2023-11-18T00:28:33;100133.72;;;5.06;100.00
42431;BME280;71905;47.466;19.024;2023-11-18T00:31:03;100122.38;;;5.09;100.00
42431;BME280;71905;47.466;19.024;2023-11-18T00:33:32;100130.28;;;5.02;100.00
42431;BME280;71905;47.466;19.024;2023-11-18T00:36:00;100139.09;;;4.97;100.00
42431;BME280;71905;47.466;19.024;2023-11-18T00:38:29;100140.00;;;4.93;100.00
42431;BME280;71905;47.466;19.024;2023-11-18T00:40:57;100142.41;;;5.08;100.00
42431;BME280;71905;47.466;19.024;2023-11-18T00:43:25;100148.56;;;5.06;100.00
42431;BME280;71905;47.466;19.024;2023-11-18T00:45:53;100147.84;;;4.96;100.00
42431;BME280;71905;47.466;19.024;2023-11-18T00:48:22;100148.59;;;5.04;100.00
42431;BME280;71905;47.466;19.024;2023-11-18T00:50:50;100150.38;;;5.00;100.00
42431;BME280;71905;47.466;19.024;2023-11-18T00:53:18;100143.50;;;4.93;100.00
42431;BME280;71905;47.466;19.024;2023-11-18T00:55:47;100139.19;;;4.89;100.00
42431;BME280;71905;47.466;19.024;2023-11-18T00:58:15;100135.59;;;4.98;100.00
42431;BME280;71905;47.466;19.024;2023-11-18T01:00:43;100138.97;;;5.05;100.00
42431;BME280;71905;47.466;19.024;2023-11-18T01:03:11;100143.41;;;4.99;100.00
42431;BME280;71905;47.466;19.024;2023-11-18T01:05:41;100145.13;;;5.02;100.00
42431;BME280;71905;47.466;19.024;2023-11-18T01:08:09;100163.56;;;4.93;100.00
42431;BME280;71905;47.466;19.024;2023-11-18T01:10:37;100154.78;;;4.95;100.00
42431;BME280;71905;47.466;19.024;2023-11-18T01:13:06;100165.19;;;5.03;100.00
42431;BME280;71905;47.466;19.024;2023-11-18T01:15:35;100158.19;;;5.03;100.00
42431;BME280;71905;47.466;19.024;2023-11-18T01:18:04;100179.13;;;5.03;100.00
42431;BME280;71905;47.466;19.024;2023-11-18T01:20:34;100175.50;;;5.14;100.00
42431;BME280;71905;47.466;19.024;2023-11-18T01:23:03;100166.88;;;5.09;100.00
42431;BME280;71905;47.466;19.024;2023-11-18T01:25:32;100167.75;;;5.06;100.00
42431;BME280;71905;47.466;19.024;2023-11-18T01:28:01;100178.25;;;5.05;100.00
42431;BME280;71905;47.466;19.024;2023-11-18T01:30:30;100173.97;;;4.99;100.00
42431;BME280;71905;47.466;19.024;2023-11-18T01:32:59;100179.94;;;5.07;100.00
42431;BME280;71905;47.466;19.024;2023-11-18T01:35:27;100190.56;;;4.96;100.00
42431;BME280;71905;47.466;19.024;2023-11-18T01:37:56;100190.59;;;4.93;100.00
42431;BME280;71905;47.466;19.024;2023-11-18T01:40:25;100175.75;;;4.97;100.00
42431;BME280;71905;47.466;19.024;2023-11-18T01:42:54;100186.13;;;5.01;100.00
42431;BME280;71905;47.466;19.024;2023-11-18T01:45:22;100193.19;;;4.95;100.00
42431;BME280;71905;47.466;19.024;2023-11-18T01:47:54;100202.78;;;4.97;100.00
42431;BME280;71905;47.466;19.024;2023-11-18T01:50:22;100195.81;;;4.93;100.00
42431;BME280;71905;47.466;19.024;2023-11-18T01:52:51;100200.25;;;4.88;100.00
42431;BME280;71905;47.466;19.024;2023-11-18T01:55:19;100195.84;;;4.92;100.00
42431;BME280;71905;47.466;19.024;2023-11-18T01:57:49;100198.41;;;4.95;100.00
42431;BME280;71905;47.466;19.024;2023-11-18T02:00:18;100199.41;;;4.88;100.00
42431;BME280;71905;47.466;19.024;2023-11-18T02:02:46;100206.44;;;4.81;100.00
42431;BME280;71905;47.466;19.024;2023-11-18T02:05:15;100212.53;;;4.83;100.00
42431;BME280;71905;47.466;19.024;2023-11-18T02:07:45;100224.75;;;4.84;100.00
42431;BME280;71905;47.466;19.024;2023-11-18T02:10:14;100208.16;;;4.85;100.00
42431;BME280;71905;47.466;19.024;2023-11-18T02:12:46;100209.03;;;4.83;100.00
42431;BME280;71905;47.466;19.024;2023-11-18T02:15:18;100215.19;;;4.79;100.00
42431;BME280;71905;47.466;19.024;2023-11-18T02:17:49;100218.75;;;4.73;100.00
42431;BME280;71905;47.466;19.024;2023-11-18T02:20:20;100233.59;;;4.69;100.00
42431;BME280;71905;47.466;19.024;2023-11-18T02:22:51;100216.09;;;4.76;100.00
42431;BME280;71905;47.466;19.024;2023-11-18T02:25:21;100210.06;;;4.71;100.00
42431;BME280;71905;47.466;19.024;2023-11-18T02:27:55;100227.50;;;4.69;100.00
42431;BME280;71905;47.466;19.024;2023-11-18T02:30:24;100221.34;;;4.76;100.00
42431;BME280;71905;47.466;19.024;2023-11-18T02:32:58;100225.75;;;4.71;100.00
42431;BME280;71905;47.466;19.024;2023-11-18T02:35:31;100222.25;;;4.72;100.00
42431;BME280;71905;47.466;19.024;2023-11-18T02:38:02;100245.81;;;4.72;100.00
42431;BME280;71905;47.466;19.024;2023-11-18T02:40:32;100245.75;;;4.75;100.00
42431;BME280;71905;47.466;19.024;2023-11-18T02:43:04;100241.34;;;4.79;100.00
42431;BME280;71905;47.466;19.024;2023-11-18T02:45:34;100232.69;;;4.75;100.00
42431;BME280;71905;47.466;19.024;2023-11-18T02:48:04;100231.78;;;4.78;100.00
42431;BME280;71905;47.466;19.024;2023-11-18T02:50:34;100232.72;;;4.72;100.00
42431;BME280;71905;47.466;19.024;2023-11-18T02:53:04;100233.59;;;4.72;100.00
42431;BME280;71905;47.466;19.024;2023-11-18T02:55:32;100237.09;;;4.70;100.00
42431;BME280;71905;47.466;19.024;2023-11-18T02:58:01;100227.41;;;4.78;100.00
42431;BME280;71905;47.466;19.024;2023-11-18T03:00:34;100232.78;;;4.66;100.00
42431;BME280;71905;47.466;19.024;2023-11-18T03:03:05;100226.59;;;4.73;100.00
42431;BME280;71905;47.466;19.024;2023-11-18T03:05:33;100240.53;;;4.75;100.00
42431;BME280;71905;47.466;19.024;2023-11-18T03:08:03;100242.25;;;4.76;100.00
42431;BME280;71905;47.466;19.024;2023-11-18T03:10:33;100258.84;;;4.75;100.00
42431;BME280;71905;47.466;19.024;2023-11-18T03:13:01;100251.91;;;4.72;100.00
42431;BME280;71905;47.466;19.024;2023-11-18T03:15:29;100264.00;;;4.84;100.00
42431;BME280;71905;47.466;19.024;2023-11-18T03:17:59;100261.44;;;4.78;100.00
42431;BME280;71905;47.466;19.024;2023-11-18T03:20:27;100260.59;;;4.76;100.00
42431;BME280;71905;47.466;19.024;2023-11-18T03:22:55;100261.44;;;4.77;100.00
42431;BME280;71905;47.466;19.024;2023-11-18T03:25:27;100263.13;;;4.82;100.00
42431;BME280;71905;47.466;19.024;2023-11-18T03:27:55;100254.41;;;4.83;100.00
42431;BME280;71905;47.466;19.024;2023-11-18T03:30:23;100260.50;;;4.84;100.00
42431;BME280;71905;47.466;19.024;2023-11-18T03:32:51;100279.75;;;4.77;100.00
42431;BME280;71905;47.466;19.024;2023-11-18T03:35:21;100264.88;;;4.82;100.00
42431;BME280;71905;47.466;19.024;2023-11-18T03:37:51;100266.63;;;4.81;100.00
42431;BME280;71905;47.466;19.024;2023-11-18T03:40:19;100278.81;;;4.85;100.00
42431;BME280;71905;47.466;19.024;2023-11-18T03:42:47;100287.47;;;4.90;100.00
42431;BME280;71905;47.466;19.024;2023-11-18T03:45:15;100277.94;;;4.86;100.00
42431;BME280;71905;47.466;19.024;2023-11-18T03:47:44;100254.41;;;4.82;100.00
42431;BME280;71905;47.466;19.024;2023-11-18T03:50:14;100256.97;;;4.88;100.00
42431;BME280;71905;47.466;19.024;2023-11-18T03:52:43;100256.94;;;4.89;100.00
42431;BME280;71905;47.466;19.024;2023-11-18T03:55:11;100250.00;;;4.87;100.00
42431;BME280;71905;47.466;19.024;2023-11-18T03:57:40;100261.34;;;4.87;100.00
42431;BME280;71905;47.466;19.024;2023-11-18T04:00:08;100271.81;;;4.86;100.00
42431;BME280;71905;47.466;19.024;2023-11-18T04:02:39;100278.75;;;4.90;100.00
42431;BME280;71905;47.466;19.024;2023-11-18T04:05:08;100273.50;;;4.91;100.00
42431;BME280;71905;47.466;19.024;2023-11-18T04:07:37;100275.28;;;4.88;100.00
42431;BME280;71905;47.466;19.024;2023-11-18T04:10:07;100282.22;;;4.90;100.00
42431;BME280;71905;47.466;19.024;2023-11-18T04:12:37;100288.38;;;4.88;100.00
42431;BME280;71905;47.466;19.024;2023-11-18T04:15:06;100295.34;;;4.89;100.00
42431;BME280;71905;47.466;19.024;2023-11-18T04:17:34;100294.50;;;4.87;100.00
42431;BME280;71905;47.466;19.024;2023-11-18T04:20:03;100302.34;;;4.87;100.00
42431;BME280;71905;47.466;19.024;2023-11-18T04:22:38;100311.91;;;4.89;100.00
42431;BME280;71905;47.466;19.024;2023-11-18T04:25:09;100302.25;;;4.93;100.00
42431;BME280;71905;47.466;19.024;2023-11-18T04:27:38;100321.44;;;4.93;100.00
42431;BME280;71905;47.466;19.024;2023-11-18T04:30:09;100316.16;;;4.99;100.00
42431;BME280;71905;47.466;19.024;2023-11-18T04:32:37;100319.66;;;4.98;100.00
42431;BME280;71905;47.466;19.024;2023-11-18T04:35:06;100317.94;;;4.97;100.00
42431;BME280;71905;47.466;19.024;2023-11-18T04:37:36;100328.41;;;4.97;100.00
42431;BME280;71905;47.466;19.024;2023-11-18T04:40:06;100324.03;;;4.98;100.00
42431;BME280;71905;47.466;19.024;2023-11-18T04:42:41;100330.13;;;4.98;100.00
42431;BME280;71905;47.466;19.024;2023-11-18T04:45:11;100343.22;;;4.95;100.00
42431;BME280;71905;47.466;19.024;2023-11-18T04:47:41;100345.84;;;4.98;100.00
42431;BME280;71905;47.466;19.024;2023-11-18T04:50:10;100344.97;;;4.95;100.00
42431;BME280;71905;47.466;19.024;2023-11-18T04:52:38;100343.28;;;4.91;100.00
42431;BME280;71905;47.466;19.024;2023-11-18T04:55:07;100350.22;;;4.96;100.00
42431;BME280;71905;47.466;19.024;2023-11-18T04:57:37;100344.16;;;4.91;100.00
42431;BME280;71905;47.466;19.024;2023-11-18T05:00:08;100351.94;;;4.99;100.00
42431;BME280;71905;47.466;19.024;2023-11-18T05:02:38;100358.13;;;4.90;100.00
42431;BME280;71905;47.466;19.024;2023-11-18T05:05:07;100345.88;;;4.97;100.00
42431;BME280;71905;47.466;19.024;2023-11-18T05:07:35;100359.81;;;4.94;100.00
42431;BME280;71905;47.466;19.024;2023-11-18T05:10:04;100352.84;;;4.93;100.00
42431;BME280;71905;47.466;19.024;2023-11-18T05:12:35;100351.94;;;4.99;100.00
42431;BME280;71905;47.466;19.024;2023-11-18T05:15:03;100362.41;;;4.99;100.00
42431;BME280;71905;47.466;19.024;2023-11-18T05:17:36;100356.19;;;5.11;100.00
42431;BME280;71905;47.466;19.024;2023-11-18T05:20:06;100353.56;;;5.12;100.00
42431;BME280;71905;47.466;19.024;2023-11-18T05:22:37;100346.59;;;5.10;100.00
42431;BME280;71905;47.466;19.024;2023-11-18T05:25:06;100350.09;;;5.07;100.00
42431;BME280;71905;47.466;19.024;2023-11-18T05:27:35;100346.63;;;5.05;100.00
42431;BME280;71905;47.466;19.024;2023-11-18T05:30:04;100344.88;;;5.09;100.00
42431;BME280;71905;47.466;19.024;2023-11-18T05:32:32;100328.25;;;5.13;100.00
42431;BME280;71905;47.466;19.024;2023-11-18T05:35:02;100346.53;;;5.14;100.00
42431;BME280;71905;47.466;19.024;2023-11-18T05:37:31;100344.72;;;5.19;100.00
42431;BME280;71905;47.466;19.024;2023-11-18T05:40:02;100345.63;;;5.17;100.00
42431;BME280;71905;47.466;19.024;2023-11-18T05:42:33;100349.22;;;5.11;100.00
42431;BME280;71905;47.466;19.024;2023-11-18T05:45:07;100357.94;;;5.10;100.00
42431;BME280;71905;47.466;19.024;2023-11-18T05:47:37;100359.78;;;5.00;100.00
42431;BME280;71905;47.466;19.024;2023-11-18T05:50:08;100358.94;;;4.98;100.00
42431;BME280;71905;47.466;19.024;2023-11-18T05:52:36;100361.56;;;4.95;100.00
42431;BME280;71905;47.466;19.024;2023-11-18T05:55:05;100372.03;;;4.98;100.00
42431;BME280;71905;47.466;19.024;2023-11-18T05:57:33;100372.03;;;4.97;100.00
42431;BME280;71905;47.466;19.024;2023-11-18T06:00:03;100378.19;;;4.91;100.00
42431;BME280;71905;47.466;19.024;2023-11-18T06:02:37;100390.34;;;4.97;100.00
42431;BME280;71905;47.466;19.024;2023-11-18T06:05:08;100390.28;;;5.03;100.00
42431;BME280;71905;47.466;19.024;2023-11-18T06:07:39;100400.81;;;4.98;100.00
42431;BME280;71905;47.466;19.024;2023-11-18T06:10:10;100391.25;;;4.96;100.00
42431;BME280;71905;47.466;19.024;2023-11-18T06:12:39;100381.63;;;4.98;100.00
42431;BME280;71905;47.466;19.024;2023-11-18T06:15:08;100391.19;;;5.00;100.00
42431;BME280;71905;47.466;19.024;2023-11-18T06:17:43;100391.22;;;4.97;100.00
42431;BME280;71905;47.466;19.024;2023-11-18T06:20:14;100394.72;;;4.93;100.00
42431;BME280;71905;47.466;19.024;2023-11-18T06:22:44;100381.63;;;4.98;100.00
42431;BME280;71905;47.466;19.024;2023-11-18T06:25:12;100390.34;;;4.97;100.00
42431;BME280;71905;47.466;19.024;2023-11-18T06:27:40;100392.88;;;5.05;100.00
42431;BME280;71905;47.466;19.024;2023-11-18T06:30:09;100400.72;;;5.06;100.00
42431;BME280;71905;47.466;19.024;2023-11-18T06:32:38;100399.03;;;5.02;100.00
42431;BME280;71905;47.466;19.024;2023-11-18T06:35:07;100408.69;;;4.97;100.00
42431;BME280;71905;47.466;19.024;2023-11-18T06:37:37;100401.66;;;5.00;100.00
42431;BME280;71905;47.466;19.024;2023-11-18T06:40:06;100409.53;;;4.97;100.00
42431;BME280;71905;47.466;19.024;2023-11-18T06:42:43;100413.91;;;4.95;100.00
42431;BME280;71905;47.466;19.024;2023-11-18T06:45:14;100391.16;;;5.03;100.00
42431;BME280;71905;47.466;19.024;2023-11-18T06:47:42;100403.44;;;4.95;100.00
42431;BME280;71905;47.466;19.024;2023-11-18T06:50:11;100397.31;;;4.99;100.00
42431;BME280;71905;47.466;19.024;2023-11-18T06:52:42;100404.16;;;5.13;100.00
42431;BME280;71905;47.466;19.024;2023-11-18T06:55:14;100402.34;;;5.21;100.00
42431;BME280;71905;47.466;19.024;2023-11-18T06:57:42;100400.63;;;5.17;100.00
42431;BME280;71905;47.466;19.024;2023-11-18T07:00:12;100401.47;;;5.19;100.00
42431;BME280;71905;47.466;19.024;2023-11-18T07:02:41;100401.47;;;5.19;100.00
42431;BME280;71905;47.466;19.024;2023-11-18T07:05:10;100398.84;;;5.19;100.00
42431;BME280;71905;47.466;19.024;2023-11-18T07:07:43;100396.16;;;5.28;100.00
42431;BME280;71905;47.466;19.024;2023-11-18T07:10:11;100401.25;;;5.40;100.00
42431;BME280;71905;47.466;19.024;2023-11-18T07:12:40;100403.09;;;5.34;100.00
42431;BME280;71905;47.466;19.024;2023-11-18T07:15:08;100404.72;;;5.44;100.00
42431;BME280;71905;47.466;19.024;2023-11-18T07:17:37;100396.03;;;5.40;100.00
42431;BME280;71905;47.466;19.024;2023-11-18T07:20:06;100396.81;;;5.45;100.00
42431;BME280;71905;47.466;19.024;2023-11-18T07:22:34;100390.69;;;5.49;100.00
42431;BME280;71905;47.466;19.024;2023-11-18T07:25:06;100369.78;;;5.46;100.00
42431;BME280;71905;47.466;19.024;2023-11-18T07:27:36;100370.66;;;5.47;100.00
42431;BME280;71905;47.466;19.024;2023-11-18T07:30:06;100350.56;;;5.47;100.00
42431;BME280;71905;47.466;19.024;2023-11-18T07:32:37;100358.41;;;5.46;100.00
42431;BME280;71905;47.466;19.024;2023-11-18T07:35:07;100358.34;;;5.52;100.00
42431;BME280;71905;47.466;19.024;2023-11-18T07:37:36;100375.75;;;5.56;100.00
42431;BME280;71905;47.466;19.024;2023-11-18T07:40:07;100374.78;;;5.65;100.00
42431;BME280;71905;47.466;19.024;2023-11-18T07:42:38;100381.78;;;5.64;100.00
42431;BME280;71905;47.466;19.024;2023-11-18T07:45:07;100380.06;;;5.61;100.00
42431;BME280;71905;47.466;19.024;2023-11-18T07:47:44;100387.09;;;5.59;100.00
42431;BME280;71905;47.466;19.024;2023-11-18T07:50:15;100389.72;;;5.59;100.00
42431;BME280;71905;47.466;19.024;2023-11-18T07:52:43;100386.97;;;5.69;100.00
42431;BME280;71905;47.466;19.024;2023-11-18T07:55:13;100384.31;;;5.70;100.00
42431;BME280;71905;47.466;19.024;2023-11-18T07:57:41;100389.59;;;5.67;100.00
42431;BME280;71905;47.466;19.024;2023-11-18T08:00:10;100407.00;;;5.73;100.00
42431;BME280;71905;47.466;19.024;2023-11-18T08:02:41;100421.88;;;5.72;100.00
42431;BME280;71905;47.466;19.024;2023-11-18T08:05:11;100407.78;;;5.81;100.00
42431;BME280;71905;47.466;19.024;2023-11-18T08:07:40;100415.63;;;5.82;100.00
42431;BME280;71905;47.466;19.024;2023-11-18T08:10:10;100426.06;;;5.87;100.00
42431;BME280;71905;47.466;19.024;2023-11-18T08:12:41;100440.03;;;5.90;100.00
42431;BME280;71905;47.466;19.024;2023-11-18T08:15:10;100437.38;;;5.89;100.00
42431;BME280;71905;47.466;19.024;2023-11-18T08:17:38;100446.13;;;5.88;100.00
42431;BME280;71905;47.466;19.024;2023-11-18T08:20:07;100430.34;;;5.97;100.00
42431;BME280;71905;47.466;19.024;2023-11-18T08:22:41;100439.91;;;6.01;100.00
42431;BME280;71905;47.466;19.024;2023-11-18T08:25:11;100434.59;;;6.04;100.00
42431;BME280;71905;47.466;19.024;2023-11-18T08:27:41;100436.28;;;6.08;100.00
42431;BME280;71905;47.466;19.024;2023-11-18T08:30:10;100433.69;;;6.10;100.00
42431;BME280;71905;47.466;19.024;2023-11-18T08:32:38;100428.34;;;6.16;100.00
42431;BME280;71905;47.466;19.024;2023-11-18T08:35:07;100422.19;;;6.17;100.00
42431;BME280;71905;47.466;19.024;2023-11-18T08:37:36;100421.28;;;6.19;100.00
42431;BME280;71905;47.466;19.024;2023-11-18T08:40:06;100427.31;;;6.26;100.00
42431;BME280;71905;47.466;19.024;2023-11-18T08:42:43;100421.19;;;6.27;100.00
42431;BME280;71905;47.466;19.024;2023-11-18T08:45:17;100438.66;;;6.28;100.00
42431;BME280;71905;47.466;19.024;2023-11-18T08:47:49;100430.75;;;6.31;100.00
42431;BME280;71905;47.466;19.024;2023-11-18T08:50:20;100437.72;;;6.32;100.00
42431;BME280;71905;47.466;19.024;2023-11-18T08:52:51;100445.53;;;6.37;100.00
42431;BME280;71905;47.466;19.024;2023-11-18T08:55:25;100442.94;;;6.35;100.00
42431;BME280;71905;47.466;19.024;2023-11-18T08:58:07;100447.13;;;6.48;100.00
42431;BME280;71905;47.466;19.024;2023-11-18T09:00:48;100474.25;;;6.49;100.00
42431;BME280;71905;47.466;19.024;2023-11-18T09:03:21;100463.72;;;6.47;100.00
42431;BME280;71905;47.466;19.024;2023-11-18T09:05:56;100463.72;;;6.47;100.00
42431;BME280;71905;47.466;19.024;2023-11-18T09:08:25;100467.97;;;6.58;100.00
42431;BME280;71905;47.466;19.024;2023-11-18T09:10:54;100473.25;;;6.56;100.00
42431;BME280;71905;47.466;19.024;2023-11-18T09:13:24;100461.81;;;6.60;100.00
42431;BME280;71905;47.466;19.024;2023-11-18T09:15:56;100463.50;;;6.64;100.00
42431;BME280;71905;47.466;19.024;2023-11-18T09:18:25;100459.19;;;6.60;100.00
42431;BME280;71905;47.466;19.024;2023-11-18T09:20:54;100465.25;;;6.65;100.00
42431;BME280;71905;47.466;19.024;2023-11-18T09:23:23;100453.91;;;6.63;100.00
42431;BME280;71905;47.466;19.024;2023-11-18T09:25:52;100441.50;;;6.71;100.00
42431;BME280;71905;47.466;19.024;2023-11-18T09:28:24;100452.00;;;6.73;100.00
42431;BME280;71905;47.466;19.024;2023-11-18T09:30:55;100462.44;;;6.77;100.00
42431;BME280;71905;47.466;19.024;2023-11-18T09:33:25;100448.38;;;6.82;100.00
42431;BME280;71905;47.466;19.024;2023-11-18T09:35:56;100448.31;;;6.85;100.00
42431;BME280;71905;47.466;19.024;2023-11-18T09:38:27;100454.25;;;6.96;100.00
42431;BME280;71905;47.466;19.024;2023-11-18T09:40:59;100458.50;;;7.04;100.00
42431;BME280;71905;47.466;19.024;2023-11-18T09:43:31;100453.28;;;7.03;100.00
42431;BME280;71905;47.466;19.024;2023-11-18T09:46:05;100461.91;;;7.09;100.00
42431;BME280;71905;47.466;19.024;2023-11-18T09:48:43;100459.28;;;7.09;100.00
42431;BME280;71905;47.466;19.024;2023-11-18T09:51:19;100453.97;;;7.14;100.00
42431;BME280;71905;47.466;19.024;2023-11-18T09:53:50;100448.63;;;7.19;100.00
42431;BME280;71905;47.466;19.024;2023-11-18T09:56:23;100443.34;;;7.20;100.00
42431;BME280;71905;47.466;19.024;2023-11-18T09:59:10;100435.31;;;7.29;100.00
42431;BME280;71905;47.466;19.024;2023-11-18T10:01:43;100434.50;;;7.26;100.00
42431;BME280;71905;47.466;19.024;2023-11-18T10:05:42;100439.78;;;7.23;100.00
42431;BME280;71905;47.466;19.024;2023-11-18T10:08:10;100430.13;;;7.26;100.00
42431;BME280;71905;47.466;19.024;2023-11-18T10:10:38;100434.31;;;7.35;100.00
42431;BME280;71905;47.466;19.024;2023-11-18T10:13:12;100432.53;;;7.38;100.00
42431;BME280;71905;47.466;19.024;2023-11-18T10:15:49;100429.81;;;7.43;100.00
42431;BME280;71905;47.466;19.024;2023-11-18T10:18:21;100427.13;;;7.46;100.00
42431;BME280;71905;47.466;19.024;2023-11-18T10:20:51;100423.56;;;7.49;100.00
42431;BME280;71905;47.466;19.024;2023-11-18T10:23:21;100433.41;;;7.39;100.00
42431;BME280;71905;47.466;19.024;2023-11-18T10:25:51;100436.66;;;7.52;99.99
42431;BME280;71905;47.466;19.024;2023-11-18T10:28:24;100427.75;;;7.59;99.71
42431;BME280;71905;47.466;19.024;2023-11-18T10:30:55;100441.75;;;7.59;99.21
42431;BME280;71905;47.466;19.024;2023-11-18T10:33:25;100452.44;;;7.52;97.95
42431;BME280;71905;47.466;19.024;2023-11-18T10:35:59;100444.34;;;7.62;100.00
42431;BME280;71905;47.466;19.024;2023-11-18T10:38:31;100461.72;;;7.70;99.62
42431;BME280;71905;47.466;19.024;2023-11-18T10:41:00;100444.91;;;7.78;98.04
42431;BME280;71905;47.466;19.024;2023-11-18T10:43:28;100440.59;;;7.76;97.14
42431;BME280;71905;47.466;19.024;2023-11-18T10:46:07;100429.88;;;7.85;98.54
42431;BME280;71905;47.466;19.024;2023-11-18T10:48:43;100458.56;;;7.95;93.81
42431;BME280;71905;47.466;19.024;2023-11-18T10:51:16;100457.81;;;7.90;93.82
42431;BME280;71905;47.466;19.024;2023-11-18T10:53:49;100458.63;;;7.94;94.73
42431;BME280;71905;47.466;19.024;2023-11-18T10:56:25;100454.25;;;7.93;96.38
42431;BME280;71905;47.466;19.024;2023-11-18T10:58:56;100448.78;;;8.04;97.11
42431;BME280;71905;47.466;19.024;2023-11-18T11:01:28;100465.34;;;8.07;98.83
42431;BME280;71905;47.466;19.024;2023-11-18T11:03:58;100462.66;;;8.10;93.35
42431;BME280;71905;47.466;19.024;2023-11-18T11:06:33;100481.81;;;8.17;92.04
42431;BME280;71905;47.466;19.024;2023-11-18T11:09:01;100480.06;;;8.17;92.74
42431;BME280;71905;47.466;19.024;2023-11-18T11:11:39;100481.00;;;8.15;94.00
42431;BME280;71905;47.466;19.024;2023-11-18T11:14:15;100488.97;;;8.10;92.95
42431;BME280;71905;47.466;19.024;2023-11-18T11:16:52;100486.25;;;8.15;93.80
42431;BME280;71905;47.466;19.024;2023-11-18T11:19:24;100482.00;;;8.08;92.92
42431;BME280;71905;47.466;19.024;2023-11-18T11:22:04;100486.16;;;8.19;92.47
42431;BME280;71905;47.466;19.024;2023-11-18T11:24:49;100478.22;;;8.21;90.76
42431;BME280;71905;47.466;19.024;2023-11-18T11:27:25;100493.00;;;8.28;90.73
42431;BME280;71905;47.466;19.024;2023-11-18T11:30:08;100495.56;;;8.31;90.56
42431;BME280;71905;47.466;19.024;2023-11-18T11:32:42;100509.50;;;8.36;90.41
42431;BME280;71905;47.466;19.024;2023-11-18T11:35:18;100520.53;;;8.55;90.13
42431;BME280;71905;47.466;19.024;2023-11-18T11:37:52;100517.81;;;8.58;89.06
42431;BME280;71905;47.466;19.024;2023-11-18T11:40:30;100510.53;;;8.71;89.42
42431;BME280;71905;47.466;19.024;2023-11-18T11:43:00;100529.69;;;8.76;88.04
42431;BME280;71905;47.466;19.024;2023-11-18T11:45:31;100537.41;;;8.85;88.40
42431;BME280;71905;47.466;19.024;2023-11-18T11:48:02;100538.81;;;9.00;85.46
42431;BME280;71905;47.466;19.024;2023-11-18T11:50:58;100544.91;;;9.02;84.28
42431;BME280;71905;47.466;19.024;2023-11-18T11:53:34;100543.81;;;8.73;84.61
42431;BME280;71905;47.466;19.024;2023-11-18T11:56:06;100548.03;;;8.82;85.05
42431;BME280;71905;47.466;19.024;2023-11-18T11:58:41;100544.25;;;8.94;83.26
42431;BME280;71905;47.466;19.024;2023-11-18T12:01:23;100556.13;;;9.11;83.58
42431;BME280;71905;47.466;19.024;2023-11-18T12:03:57;100551.47;;;9.23;82.33
42431;BME280;71905;47.466;19.024;2023-11-18T12:06:27;100559.00;;;9.38;81.78
42431;BME280;71905;47.466;19.024;2023-11-18T12:08:57;100551.91;;;9.40;80.46
42431;BME280;71905;47.466;19.024;2023-11-18T12:11:25;100571.06;;;9.48;79.67
42431;BME280;71905;47.466;19.024;2023-11-18T12:14:03;100571.13;;;9.45;80.11
42431;BME280;71905;47.466;19.024;2023-11-18T12:16:59;100579.47;;;9.27;79.21
42431;BME280;71905;47.466;19.024;2023-11-18T12:19:37;100565.34;;;8.92;80.90
42431;BME280;71905;47.466;19.024;2023-11-18T12:22:15;100572.94;;;8.67;82.71
42431;BME280;71905;47.466;19.024;2023-11-18T12:28:16;100582.47;;;8.71;82.31
42431;BME280;71905;47.466;19.024;2023-11-18T12:30:48;100550.53;;;8.46;83.96
42431;BME280;71905;47.466;19.024;2023-11-18T12:34:00;100570.28;;;8.22;85.33
42431;BME280;71905;47.466;19.024;2023-11-18T12:36:56;100574.94;;;8.08;86.99
42431;BME280;71905;47.466;19.024;2023-11-18T12:39:48;100564.47;;;8.05;87.05
42431;BME280;71905;47.466;19.024;2023-11-18T12:42:58;100567.91;;;8.09;87.32
42431;BME280;71905;47.466;19.024;2023-11-18T12:45:43;100547.88;;;8.48;83.48
42431;BME280;71905;47.466;19.024;2023-11-18T12:48:14;100549.06;;;8.32;84.50
42431;BME280;71905;47.466;19.024;2023-11-18T12:50:43;100553.59;;;8.23;84.57
42431;BME280;71905;47.466;19.024;2023-11-18T12:53:13;100566.78;;;8.22;86.52
42431;BME280;71905;47.466;19.024;2023-11-18T12:55:47;100559.69;;;8.25;85.63
42431;BME280;71905;47.466;19.024;2023-11-18T12:58:17;100580.06;;;8.61;83.42
42431;BME280;71905;47.466;19.024;2023-11-18T13:00:46;100582.28;;;8.80;80.88
42431;BME280;71905;47.466;19.024;2023-11-18T13:03:16;100576.19;;;8.78;81.04
42431;BME280;71905;47.466;19.024;2023-11-18T13:05:44;100580.06;;;8.61;82.45
42431;BME280;71905;47.466;19.024;2023-11-18T13:08:13;100595.69;;;8.70;82.18